createdAt,value
2019-02-07T00:00:00.464Z,49.00
2019-02-07T00:01:03.530Z,45.80
2019-02-07T00:02:04.796Z,45.20
2019-02-07T00:03:06.316Z,47.00
2019-02-07T00:04:07.554Z,45.40
2019-02-07T00:05:09.038Z,49.80
2019-02-07T00:06:11.620Z,51.80
2019-02-07T00:07:13.002Z,56.20
2019-02-07T00:08:14.268Z,51.80
2019-02-07T00:09:15.527Z,50.80
2019-02-07T00:10:20.178Z,46.00
2019-02-07T00:11:21.453Z,49.20
2019-02-07T00:12:22.960Z,48.00
2019-02-07T00:13:24.395Z,52.00
2019-02-07T00:14:25.833Z,46.60
2019-02-07T00:15:27.356Z,49.20
2019-02-07T00:16:28.650Z,47.80
2019-02-07T00:17:29.881Z,48.80
2019-02-07T00:18:31.155Z,50.60
2019-02-07T00:19:33.142Z,47.20
2019-02-07T00:20:34.322Z,47.60
2019-02-07T00:21:35.817Z,50.40
2019-02-07T00:22:39.233Z,50.40
2019-02-07T00:23:40.467Z,49.80
2019-02-07T00:24:43.196Z,46.00
2019-02-07T00:25:44.781Z,53.00
2019-02-07T00:26:46.085Z,48.40
2019-02-07T00:27:47.325Z,46.60
2019-02-07T00:28:48.747Z,46.60
2019-02-07T00:29:50.373Z,52.00
2019-02-07T00:30:51.601Z,46.80
2019-02-07T00:31:52.956Z,52.40
2019-02-07T00:32:54.310Z,47.60
2019-02-07T00:33:55.564Z,49.80
2019-02-07T00:34:57.270Z,47.40
2019-02-07T00:35:58.786Z,46.60
2019-02-07T00:37:00.238Z,47.80
2019-02-07T00:38:01.566Z,46.00
2019-02-07T00:39:05.282Z,46.60
2019-02-07T00:40:10.014Z,49.80
2019-02-07T00:41:11.342Z,51.20
2019-02-07T00:42:12.593Z,47.40
2019-02-07T00:43:14.864Z,46.20
2019-02-07T00:44:16.657Z,46.80
2019-02-07T00:45:18.728Z,47.00
2019-02-07T00:46:19.994Z,50.00
2019-02-07T00:47:21.357Z,48.00
2019-02-07T00:48:22.714Z,50.60
2019-02-07T00:49:24.494Z,48.40
2019-02-07T00:50:25.691Z,51.20
2019-02-07T00:51:27.103Z,45.00
2019-02-07T00:52:28.288Z,44.20
2019-02-07T00:53:29.469Z,48.80
2019-02-07T00:54:33.148Z,45.40
2019-02-07T00:55:34.333Z,49.20
2019-02-07T00:56:35.756Z,45.20
2019-02-07T00:57:36.968Z,44.60
2019-02-07T00:58:38.527Z,46.40
2019-02-07T00:59:40.318Z,47.60
2019-02-07T01:00:41.557Z,48.60
2019-02-07T01:01:42.905Z,46.00
2019-02-07T01:02:44.271Z,47.80
2019-02-07T01:03:45.449Z,44.80
2019-02-07T01:04:53.722Z,48.40
2019-02-07T01:05:55.001Z,43.60
2019-02-07T01:06:56.242Z,42.40
2019-02-07T01:07:57.570Z,46.40
2019-02-07T01:08:58.995Z,46.00
2019-02-07T01:10:00.568Z,44.40
2019-02-07T01:11:01.803Z,50.20
2019-02-07T01:12:03.759Z,48.20
2019-02-07T01:13:04.991Z,46.80
2019-02-07T01:14:06.338Z,49.20
2019-02-07T01:15:09.909Z,42.60
2019-02-07T01:16:11.403Z,45.60
2019-02-07T01:17:12.586Z,42.80
2019-02-07T01:18:13.972Z,47.60
2019-02-07T01:19:15.187Z,41.00
2019-02-07T01:20:16.716Z,48.20
2019-02-07T01:21:18.000Z,44.20
2019-02-07T01:22:19.525Z,43.80
2019-02-07T01:23:21.113Z,49.00
2019-02-07T01:24:22.319Z,44.80
2019-02-07T01:25:24.112Z,49.20
2019-02-07T01:26:25.534Z,49.40
2019-02-07T01:27:26.818Z,41.20
2019-02-07T01:28:28.007Z,47.40
2019-02-07T01:29:29.678Z,44.00
2019-02-07T01:30:30.914Z,42.00
2019-02-07T01:31:32.096Z,46.20
2019-02-07T01:32:33.277Z,42.20
2019-02-07T01:33:36.128Z,47.60
2019-02-07T01:34:37.331Z,44.60
2019-02-07T01:35:38.517Z,46.20
2019-02-07T01:36:39.842Z,45.40
2019-02-07T01:37:41.090Z,45.20
2019-02-07T01:38:42.754Z,42.40
2019-02-07T01:39:44.047Z,46.00
2019-02-07T01:40:45.534Z,45.40
2019-02-07T01:41:47.933Z,43.60
2019-02-07T01:42:49.766Z,46.80
2019-02-07T01:43:51.118Z,39.20
2019-02-07T01:44:52.412Z,39.60
2019-02-07T01:45:53.743Z,46.00
2019-02-07T01:46:55.159Z,43.20
2019-02-07T01:47:56.823Z,41.00
2019-02-07T01:48:58.247Z,44.20
2019-02-07T01:49:59.411Z,45.40
2019-02-07T01:51:00.763Z,39.80
2019-02-07T01:52:05.054Z,41.40
2019-02-07T01:53:06.596Z,43.60
2019-02-07T01:54:07.898Z,45.20
2019-02-07T01:55:09.103Z,42.80
2019-02-07T01:56:10.776Z,40.80
2019-02-07T01:57:12.253Z,45.80
2019-02-07T01:58:13.936Z,42.40
2019-02-07T01:59:15.428Z,44.20
2019-02-07T02:00:17.621Z,39.80
2019-02-07T02:01:19.121Z,39.80
2019-02-07T02:02:20.332Z,45.20
2019-02-07T02:03:21.653Z,39.80
2019-02-07T02:04:22.848Z,41.80
2019-02-07T02:05:24.141Z,46.80
2019-02-07T02:06:25.662Z,44.60
2019-02-07T02:07:27.824Z,45.80
2019-02-07T02:08:28.984Z,44.60
2019-02-07T02:09:30.625Z,45.80
2019-02-07T02:10:31.931Z,47.80
2019-02-07T02:11:33.140Z,44.60
2019-02-07T02:12:34.428Z,45.20
2019-02-07T02:13:35.665Z,42.20
2019-02-07T02:14:37.469Z,50.60
2019-02-07T02:15:38.809Z,48.40
2019-02-07T02:16:40.587Z,40.40
2019-02-07T02:17:41.833Z,43.80
2019-02-07T02:18:42.994Z,47.00
2019-02-07T02:19:44.510Z,46.00
2019-02-07T02:20:45.717Z,49.80
2019-02-07T02:21:47.032Z,46.20
2019-02-07T02:22:48.211Z,43.40
2019-02-07T02:23:49.772Z,46.60
2019-02-07T02:24:51.290Z,44.00
2019-02-07T02:25:52.917Z,44.20
2019-02-07T02:26:55.380Z,45.80
2019-02-07T02:27:57.176Z,42.40
2019-02-07T02:28:58.800Z,47.00
2019-02-07T02:30:00.094Z,46.00
2019-02-07T02:31:01.566Z,46.40
2019-02-07T02:32:03.205Z,46.40
2019-02-07T02:33:04.704Z,46.20
2019-02-07T02:34:05.895Z,42.80
2019-02-07T02:35:07.088Z,46.40
2019-02-07T02:36:08.962Z,43.60
2019-02-07T02:37:10.146Z,42.60
2019-02-07T02:38:11.838Z,46.00
2019-02-07T02:39:13.800Z,39.60
2019-02-07T02:40:15.077Z,47.20
2019-02-07T02:41:17.519Z,40.60
2019-02-07T02:42:18.848Z,45.60
2019-02-07T02:43:20.385Z,43.60
2019-02-07T02:44:21.614Z,47.80
2019-02-07T02:45:36.621Z,40.20
2019-02-07T02:46:27.079Z,40.80
2019-02-07T02:47:28.423Z,41.60
2019-02-07T02:48:29.701Z,47.40
2019-02-07T02:49:31.093Z,45.40
2019-02-07T02:50:32.347Z,42.00
2019-02-07T02:51:33.615Z,43.20
2019-02-07T02:52:35.023Z,39.60
2019-02-07T02:53:36.291Z,43.40
2019-02-07T02:54:39.839Z,41.80
2019-02-07T02:55:42.792Z,41.60
2019-02-07T02:56:44.167Z,39.40
2019-02-07T02:57:45.357Z,43.80
2019-02-07T02:58:46.573Z,44.80
2019-02-07T02:59:47.791Z,40.80
2019-02-07T03:00:59.760Z,45.60
2019-02-07T03:02:19.734Z,41.20
2019-02-07T03:03:23.416Z,42.00
2019-02-07T03:04:26.641Z,44.00
2019-02-07T03:05:32.851Z,36.60
2019-02-07T03:06:39.038Z,40.60
2019-02-07T03:07:54.589Z,43.00
2019-02-07T03:09:00.963Z,38.00
2019-02-07T03:10:13.690Z,40.20
2019-02-07T03:11:16.898Z,38.00
2019-02-07T03:12:20.514Z,41.40
2019-02-07T03:13:40.046Z,38.20
2019-02-07T03:14:49.254Z,45.60
2019-02-07T03:16:04.531Z,42.00
2019-02-07T03:17:10.467Z,39.80
2019-02-07T03:18:13.560Z,41.20
2019-02-07T03:19:19.454Z,40.40
2019-02-07T03:20:23.098Z,44.80
2019-02-07T03:21:35.441Z,37.60
2019-02-07T03:22:47.544Z,36.80
2019-02-07T03:24:02.572Z,37.80
2019-02-07T03:25:19.237Z,35.60
2019-02-07T03:26:34.571Z,41.80
2019-02-07T03:27:43.868Z,37.20
2019-02-07T03:29:03.729Z,41.40
2019-02-07T03:30:26.883Z,36.20
2019-02-07T03:31:32.989Z,34.40
2019-02-07T03:32:54.511Z,37.40
2019-02-07T03:34:12.782Z,43.00
2019-02-07T03:35:18.879Z,40.00
2019-02-07T03:36:21.979Z,38.20
2019-02-07T03:37:25.084Z,38.20
2019-02-07T03:38:28.337Z,38.60
2019-02-07T03:39:34.499Z,39.80
2019-02-07T03:40:52.863Z,43.60
2019-02-07T03:42:01.511Z,36.80
2019-02-07T03:43:23.088Z,42.00
2019-02-07T03:44:26.206Z,35.40
2019-02-07T03:45:32.278Z,36.60
2019-02-07T03:46:35.397Z,39.20
2019-02-07T03:47:47.547Z,38.60
2019-02-07T03:48:53.701Z,38.20
2019-02-07T03:49:57.325Z,41.20
2019-02-07T03:51:12.245Z,35.20
2019-02-07T03:52:30.580Z,37.40
2019-02-07T03:53:40.040Z,35.60
2019-02-07T03:54:49.181Z,37.60
2019-02-07T03:55:52.260Z,35.00
2019-02-07T03:56:55.649Z,42.00
2019-02-07T03:58:02.528Z,41.80
2019-02-07T03:59:20.668Z,37.00
2019-02-07T04:00:40.655Z,44.60
2019-02-07T04:01:43.756Z,38.80
2019-02-07T04:02:49.591Z,41.80
2019-02-07T04:04:09.158Z,39.80
2019-02-07T04:05:12.268Z,32.20
2019-02-07T04:06:30.640Z,43.20
2019-02-07T04:07:36.608Z,46.60
2019-02-07T04:08:42.443Z,40.60
2019-02-07T04:09:51.642Z,44.00
2019-02-07T04:10:57.823Z,41.00
2019-02-07T04:12:00.968Z,40.60
2019-02-07T04:13:04.142Z,40.60
2019-02-07T04:14:16.491Z,40.00
2019-02-07T04:15:35.971Z,40.00
2019-02-07T04:16:47.816Z,39.40
2019-02-07T04:17:56.742Z,36.20
2019-02-07T04:19:06.068Z,38.00
2019-02-07T04:20:14.328Z,37.20
2019-02-07T04:21:26.486Z,41.40
2019-02-07T04:22:29.756Z,35.00
2019-02-07T04:23:50.475Z,38.40
2019-02-07T04:25:10.425Z,40.20
2019-02-07T04:26:25.924Z,37.00
2019-02-07T04:27:29.122Z,42.20
2019-02-07T04:28:44.473Z,45.60
2019-02-07T04:29:56.666Z,35.80
2019-02-07T04:31:05.894Z,40.20
2019-02-07T04:32:26.042Z,39.40
2019-02-07T04:33:29.266Z,40.20
2019-02-07T04:34:35.155Z,42.40
2019-02-07T04:35:44.379Z,39.00
2019-02-07T04:36:50.637Z,40.80
2019-02-07T04:37:54.379Z,40.60
2019-02-07T04:39:09.689Z,44.40
2019-02-07T04:40:22.191Z,41.20
2019-02-07T04:41:43.693Z,41.40
2019-02-07T04:43:04.025Z,40.80
2019-02-07T04:44:25.105Z,38.40
2019-02-07T04:45:45.104Z,37.40
2019-02-07T04:47:04.571Z,39.00
2019-02-07T04:48:07.862Z,38.00
2019-02-07T04:49:29.248Z,39.60
2019-02-07T04:50:38.663Z,44.80
2019-02-07T04:51:50.827Z,42.60
2019-02-07T04:53:00.328Z,43.80
2019-02-07T04:54:03.777Z,38.80
2019-02-07T04:55:13.362Z,37.60
2019-02-07T04:56:22.724Z,43.20
2019-02-07T04:57:44.073Z,43.40
2019-02-07T04:58:59.374Z,44.20
2019-02-07T05:00:02.690Z,39.20
2019-02-07T05:01:10.157Z,44.20
2019-02-07T05:02:30.112Z,39.60
2019-02-07T05:03:51.700Z,42.60
2019-02-07T05:05:07.132Z,43.60
2019-02-07T05:06:28.056Z,44.80
2019-02-07T05:07:37.336Z,39.00
2019-02-07T05:08:40.703Z,40.00
2019-02-07T05:09:46.820Z,40.40
2019-02-07T05:10:50.127Z,39.60
2019-02-07T05:11:56.017Z,37.20
2019-02-07T05:13:05.609Z,44.60
2019-02-07T05:14:20.819Z,43.20
2019-02-07T05:15:39.151Z,35.20
2019-02-07T05:16:43.767Z,44.60
2019-02-07T05:17:52.868Z,47.80
2019-02-07T05:18:56.011Z,42.60
2019-02-07T05:19:59.307Z,43.20
2019-02-07T05:21:11.383Z,40.40
2019-02-07T05:22:23.494Z,36.60
2019-02-07T05:23:45.477Z,38.40
2019-02-07T05:24:48.709Z,46.60
2019-02-07T05:25:54.962Z,45.20
2019-02-07T05:26:58.037Z,43.80
2019-02-07T05:28:08.116Z,38.40
2019-02-07T05:29:14.031Z,36.20
2019-02-07T05:30:17.415Z,42.40
2019-02-07T05:31:23.529Z,41.80
2019-02-07T05:32:43.080Z,35.60
2019-02-07T05:34:01.551Z,38.20
2019-02-07T05:35:23.910Z,40.60
2019-02-07T05:36:33.325Z,40.20
2019-02-07T05:37:42.974Z,38.20
2019-02-07T05:38:52.492Z,39.40
2019-02-07T05:39:58.568Z,41.40
2019-02-07T05:41:11.009Z,36.00
2019-02-07T05:42:14.474Z,45.60
2019-02-07T05:43:20.949Z,45.00
2019-02-07T05:44:34.432Z,38.40
2019-02-07T05:45:38.269Z,40.00
2019-02-07T05:46:51.158Z,40.40
2019-02-07T05:47:57.441Z,43.60
2019-02-07T05:49:06.638Z,36.60
2019-02-07T05:50:27.576Z,37.20
2019-02-07T05:51:40.005Z,34.00
2019-02-07T05:52:43.176Z,37.40
2019-02-07T05:54:02.733Z,48.60
2019-02-07T05:55:07.424Z,35.60
2019-02-07T05:56:22.870Z,38.40
2019-02-07T05:57:31.666Z,38.60
2019-02-07T05:58:50.049Z,43.40
2019-02-07T05:59:59.428Z,36.00
2019-02-07T06:01:08.097Z,39.00
2019-02-07T06:02:17.617Z,41.20
2019-02-07T06:03:32.570Z,36.00
2019-02-07T06:04:50.512Z,43.20
2019-02-07T06:06:08.720Z,39.40
2019-02-07T06:07:29.764Z,40.20
2019-02-07T06:08:32.870Z,46.80
2019-02-07T06:09:42.034Z,42.60
2019-02-07T06:10:45.182Z,38.00
2019-02-07T06:11:57.496Z,36.60
2019-02-07T06:13:00.794Z,38.00
2019-02-07T06:14:20.489Z,38.60
2019-02-07T06:15:41.587Z,37.20
2019-02-07T06:17:02.852Z,34.40
2019-02-07T06:18:04.854Z,39.60
2019-02-07T06:19:26.439Z,38.80
2019-02-07T06:20:30.081Z,37.60
2019-02-07T06:21:39.033Z,41.60
2019-02-07T06:22:45.081Z,36.60
2019-02-07T06:23:54.465Z,46.00
2019-02-07T06:24:57.579Z,41.80
2019-02-07T06:26:17.513Z,38.00
2019-02-07T06:27:37.178Z,38.00
2019-02-07T06:29:00.033Z,41.20
2019-02-07T06:30:19.966Z,43.00
2019-02-07T06:31:29.605Z,40.20
2019-02-07T06:32:51.058Z,42.60
2019-02-07T06:34:00.683Z,38.60
2019-02-07T06:35:07.883Z,36.60
2019-02-07T06:36:17.633Z,36.00
2019-02-07T06:37:30.333Z,41.40
2019-02-07T06:38:33.667Z,39.00
2019-02-07T06:39:37.638Z,39.40
2019-02-07T06:40:40.873Z,38.00
2019-02-07T06:41:59.139Z,36.40
2019-02-07T06:43:18.284Z,36.20
2019-02-07T06:44:21.508Z,38.80
2019-02-07T06:45:31.013Z,34.40
2019-02-07T06:46:46.300Z,32.60
2019-02-07T06:47:52.734Z,34.20
2019-02-07T06:48:58.828Z,40.80
2019-02-07T06:50:01.970Z,38.80
2019-02-07T06:51:05.678Z,38.20
2019-02-07T06:52:21.160Z,37.60
2019-02-07T06:53:30.438Z,37.20
2019-02-07T06:54:42.746Z,35.40
2019-02-07T06:56:02.494Z,35.00
2019-02-07T06:57:20.944Z,35.60
2019-02-07T06:58:27.019Z,40.80
2019-02-07T06:59:33.454Z,39.80
2019-02-07T07:00:36.522Z,38.00
2019-02-07T07:01:42.488Z,37.40
2019-02-07T07:02:45.578Z,37.20
2019-02-07T07:03:48.747Z,35.40
2019-02-07T07:05:10.990Z,36.80
2019-02-07T07:06:14.130Z,37.40
2019-02-07T07:07:17.266Z,36.80
2019-02-07T07:08:33.117Z,42.00
2019-02-07T07:09:42.210Z,40.00
2019-02-07T07:10:51.116Z,31.80
2019-02-07T07:12:00.001Z,39.40
2019-02-07T07:13:18.144Z,40.40
2019-02-07T07:14:21.291Z,32.60
2019-02-07T07:15:41.483Z,38.60
2019-02-07T07:16:56.659Z,31.80
2019-02-07T07:18:08.841Z,32.40
2019-02-07T07:19:18.029Z,35.60
2019-02-07T07:20:37.403Z,35.60
2019-02-07T07:21:49.361Z,32.40
2019-02-07T07:22:52.512Z,36.00
2019-02-07T07:23:58.673Z,29.80
2019-02-07T07:25:04.706Z,32.40
2019-02-07T07:26:24.231Z,32.80
2019-02-07T07:27:42.636Z,32.60
2019-02-07T07:28:51.499Z,33.40
2019-02-07T07:30:01.009Z,38.20
2019-02-07T07:31:22.379Z,32.60
2019-02-07T07:32:31.307Z,36.80
2019-02-07T07:33:37.103Z,33.80
2019-02-07T07:34:58.869Z,33.00
2019-02-07T07:36:02.113Z,31.40
2019-02-07T07:37:08.207Z,35.00
2019-02-07T07:38:14.025Z,34.60
2019-02-07T07:39:20.196Z,36.00
2019-02-07T07:40:35.684Z,35.60
2019-02-07T07:41:49.478Z,33.20
2019-02-07T07:43:04.720Z,35.60
2019-02-07T07:44:23.045Z,33.00
2019-02-07T07:45:29.069Z,33.60
2019-02-07T07:46:41.184Z,34.60
2019-02-07T07:48:00.982Z,37.00
2019-02-07T07:49:19.004Z,33.00
2019-02-07T07:50:24.780Z,33.20
2019-02-07T07:51:30.531Z,37.40
2019-02-07T07:52:36.558Z,33.60
2019-02-07T07:53:40.084Z,32.60
2019-02-07T07:54:49.284Z,37.20
2019-02-07T07:56:01.283Z,34.00
2019-02-07T07:57:07.252Z,32.60
2019-02-07T07:58:12.918Z,33.20
2019-02-07T07:59:32.352Z,34.40
2019-02-07T08:00:41.041Z,35.60
2019-02-07T08:01:47.146Z,34.60
2019-02-07T08:02:56.095Z,35.20
2019-02-07T08:04:01.922Z,36.20
2019-02-07T08:05:09.957Z,33.40
2019-02-07T08:06:13.130Z,36.40
2019-02-07T08:07:25.382Z,32.40
2019-02-07T08:08:31.181Z,36.00
2019-02-07T08:09:34.467Z,37.60
2019-02-07T08:10:43.524Z,35.00
2019-02-07T08:11:58.865Z,31.40
2019-02-07T08:13:18.480Z,38.00
2019-02-07T08:14:21.608Z,32.40
2019-02-07T08:15:33.665Z,34.20
2019-02-07T08:16:40.035Z,31.80
2019-02-07T08:17:48.975Z,33.00
2019-02-07T08:18:52.167Z,40.20
2019-02-07T08:20:12.134Z,36.00
2019-02-07T08:21:34.160Z,31.20
2019-02-07T08:22:52.552Z,33.00
2019-02-07T08:23:56.422Z,33.00
2019-02-07T08:24:59.537Z,30.80
2019-02-07T08:26:19.943Z,38.00
2019-02-07T08:27:23.430Z,35.00
2019-02-07T08:28:44.615Z,35.60
2019-02-07T08:30:03.222Z,33.60
2019-02-07T08:31:09.029Z,30.60
2019-02-07T08:32:29.405Z,33.80
2019-02-07T08:33:49.045Z,34.20
2019-02-07T08:34:54.038Z,37.80
2019-02-07T08:36:13.856Z,39.00
2019-02-07T08:37:16.948Z,31.20
2019-02-07T08:38:29.369Z,33.40
2019-02-07T08:39:47.826Z,31.60
2019-02-07T08:41:07.482Z,30.00
2019-02-07T08:42:10.800Z,32.20
2019-02-07T08:43:16.706Z,30.60
2019-02-07T08:44:32.000Z,34.20
2019-02-07T08:45:41.181Z,36.00
2019-02-07T08:46:50.911Z,30.60
2019-02-07T08:48:04.030Z,41.60
2019-02-07T08:49:10.675Z,30.40
2019-02-07T08:50:16.828Z,29.60
2019-02-07T08:51:22.884Z,31.20
2019-02-07T08:52:42.421Z,31.60
2019-02-07T08:53:51.861Z,30.00
2019-02-07T08:55:12.172Z,30.80
2019-02-07T08:56:32.122Z,30.60
2019-02-07T08:57:41.264Z,33.20
2019-02-07T08:58:50.634Z,33.60
2019-02-07T08:59:53.777Z,31.80
2019-02-07T09:01:05.730Z,31.00
2019-02-07T09:02:08.881Z,34.80
2019-02-07T09:03:14.871Z,28.40
2019-02-07T09:04:24.254Z,29.20
2019-02-07T09:05:33.565Z,34.80
2019-02-07T09:06:36.762Z,32.60
2019-02-07T09:07:48.930Z,34.20
2019-02-07T09:08:58.018Z,29.80
2019-02-07T09:10:01.515Z,33.40
2019-02-07T09:11:13.573Z,34.00
2019-02-07T09:12:23.005Z,33.00
2019-02-07T09:13:26.518Z,29.40
2019-02-07T09:14:29.989Z,34.00
2019-02-07T09:15:42.193Z,31.40
2019-02-07T09:16:45.586Z,28.20
2019-02-07T09:17:49.185Z,33.20
2019-02-07T09:18:52.271Z,31.40
2019-02-07T09:20:01.313Z,29.40
2019-02-07T09:21:11.816Z,31.00
2019-02-07T09:22:15.192Z,38.40
2019-02-07T09:23:21.240Z,30.00
2019-02-07T09:24:27.513Z,32.20
2019-02-07T09:25:36.359Z,27.20
2019-02-07T09:26:57.517Z,29.40
2019-02-07T09:28:06.587Z,29.20
2019-02-07T09:29:12.903Z,31.80
2019-02-07T09:30:27.589Z,28.00
2019-02-07T09:31:39.974Z,30.60
2019-02-07T09:32:59.848Z,30.60
2019-02-07T09:34:15.217Z,29.60
2019-02-07T09:35:21.463Z,32.80
2019-02-07T09:36:36.796Z,32.80
2019-02-07T09:37:58.112Z,30.20
2019-02-07T09:39:01.443Z,25.80
2019-02-07T09:40:18.997Z,28.40
2019-02-07T09:41:22.122Z,30.80
2019-02-07T09:42:31.286Z,33.40
2019-02-07T09:43:43.433Z,32.00
2019-02-07T09:45:03.223Z,25.60
2019-02-07T09:46:24.761Z,31.80
2019-02-07T09:47:27.885Z,31.60
2019-02-07T09:48:47.927Z,35.40
2019-02-07T09:49:54.166Z,29.80
2019-02-07T09:51:06.259Z,27.40
2019-02-07T09:52:12.525Z,29.80
2019-02-07T09:53:31.071Z,34.40
2019-02-07T09:54:46.618Z,29.60
2019-02-07T09:56:06.375Z,29.20
2019-02-07T09:57:27.737Z,28.20
2019-02-07T09:58:40.037Z,31.60
2019-02-07T09:59:46.251Z,33.60
2019-02-07T10:00:49.541Z,29.00
2019-02-07T10:02:04.967Z,29.40
2019-02-07T10:03:24.724Z,33.20
2019-02-07T10:04:44.551Z,32.80
2019-02-07T10:05:47.641Z,28.20
2019-02-07T10:07:09.142Z,34.00
2019-02-07T10:08:28.631Z,32.20
2019-02-07T10:09:32.089Z,29.00
2019-02-07T10:10:35.263Z,28.20
2019-02-07T10:11:55.187Z,30.60
2019-02-07T10:13:13.910Z,32.40
2019-02-07T10:14:32.289Z,29.20
2019-02-07T10:15:51.969Z,27.40
2019-02-07T10:16:58.083Z,27.80
2019-02-07T10:18:01.197Z,32.80
2019-02-07T10:19:20.855Z,32.80
2019-02-07T10:20:26.924Z,29.80
2019-02-07T10:21:42.552Z,25.40
2019-02-07T10:22:46.385Z,25.00
2019-02-07T10:23:55.306Z,27.00
2019-02-07T10:25:04.404Z,28.40
2019-02-07T10:26:16.425Z,30.00
2019-02-07T10:27:19.650Z,27.40
2019-02-07T10:28:25.878Z,29.00
2019-02-07T10:29:41.237Z,26.40
2019-02-07T10:31:01.199Z,32.20
2019-02-07T10:32:20.858Z,24.40
2019-02-07T10:33:24.017Z,30.00
2019-02-07T10:34:43.768Z,25.60
2019-02-07T10:35:55.854Z,29.20
2019-02-07T10:37:15.868Z,28.80
2019-02-07T10:38:24.971Z,26.20
2019-02-07T10:39:31.220Z,24.00
2019-02-07T10:40:34.714Z,23.60
2019-02-07T10:41:38.266Z,25.40
2019-02-07T10:42:50.420Z,30.00
2019-02-07T10:44:02.503Z,27.40
2019-02-07T10:45:21.851Z,23.80
2019-02-07T10:46:42.023Z,27.80
2019-02-07T10:47:45.543Z,29.20
2019-02-07T10:49:00.867Z,26.20
2019-02-07T10:50:07.319Z,24.80
2019-02-07T10:51:10.649Z,27.80
2019-02-07T10:52:14.019Z,27.40
2019-02-07T10:53:17.375Z,25.20
2019-02-07T10:54:37.729Z,25.00
2019-02-07T10:55:57.891Z,27.40
2019-02-07T10:57:03.736Z,23.60
2019-02-07T10:58:26.023Z,26.40
2019-02-07T10:59:45.901Z,24.00
2019-02-07T11:00:55.033Z,25.40
2019-02-07T11:02:13.357Z,26.80
2019-02-07T11:03:16.430Z,25.20
2019-02-07T11:04:31.648Z,28.20
2019-02-07T11:05:37.819Z,25.20
2019-02-07T11:06:52.783Z,20.40
2019-02-07T11:07:56.017Z,27.40
2019-02-07T11:09:02.644Z,25.80
2019-02-07T11:10:30.146Z,25.60
2019-02-07T11:11:39.668Z,24.60
2019-02-07T11:12:55.173Z,27.20
2019-02-07T11:13:58.357Z,28.20
2019-02-07T11:15:01.576Z,22.80
2019-02-07T11:16:24.604Z,27.00
2019-02-07T11:17:46.154Z,24.40
2019-02-07T11:18:58.374Z,25.20
2019-02-07T11:20:04.316Z,23.80
2019-02-07T11:21:13.522Z,22.80
2019-02-07T11:22:16.612Z,24.00
2019-02-07T11:23:26.232Z,27.40
2019-02-07T11:24:32.149Z,25.60
2019-02-07T11:25:35.329Z,25.60
2019-02-07T11:26:47.580Z,21.80
2019-02-07T11:27:53.500Z,24.40
2019-02-07T11:29:13.303Z,24.00
2019-02-07T11:30:18.137Z,22.00
2019-02-07T11:31:24.582Z,20.00
2019-02-07T11:32:30.857Z,24.60
2019-02-07T11:33:40.069Z,24.40
2019-02-07T11:35:00.043Z,28.00
2019-02-07T11:36:12.440Z,25.60
2019-02-07T11:37:18.685Z,24.80
2019-02-07T11:38:24.852Z,22.40
2019-02-07T11:39:31.218Z,25.00
2019-02-07T11:40:52.406Z,22.20
2019-02-07T11:41:58.449Z,22.60
2019-02-07T11:43:18.296Z,27.20
2019-02-07T11:44:30.698Z,26.20
2019-02-07T11:45:36.954Z,21.40
2019-02-07T11:46:43.215Z,24.40
2019-02-07T11:47:52.609Z,21.40
2019-02-07T11:49:07.629Z,20.00
2019-02-07T11:50:20.067Z,22.20
2019-02-07T11:51:38.725Z,23.60
2019-02-07T11:52:48.221Z,19.20
2019-02-07T11:54:06.640Z,27.80
2019-02-07T11:55:09.895Z,20.80
2019-02-07T11:56:13.695Z,23.40
2019-02-07T11:57:25.921Z,23.40
2019-02-07T11:58:32.445Z,24.00
2019-02-07T11:59:44.955Z,25.20
2019-02-07T12:01:05.020Z,24.60
2019-02-07T12:02:14.211Z,23.20
2019-02-07T12:03:26.592Z,28.60
2019-02-07T12:04:29.736Z,23.60
2019-02-07T12:05:34.561Z,20.00
2019-02-07T12:06:43.462Z,26.80
2019-02-07T12:07:46.568Z,23.00
2019-02-07T12:08:52.903Z,28.20
2019-02-07T12:10:08.215Z,24.40
2019-02-07T12:11:17.588Z,21.00
2019-02-07T12:12:38.408Z,26.00
2019-02-07T12:13:41.499Z,24.60
2019-02-07T12:14:56.458Z,23.20
2019-02-07T12:15:59.749Z,22.80
2019-02-07T12:17:11.723Z,23.40
2019-02-07T12:18:14.818Z,26.60
2019-02-07T12:19:20.805Z,21.80
2019-02-07T12:20:23.931Z,22.00
2019-02-07T12:21:27.317Z,23.20
2019-02-07T12:22:31.155Z,26.40
2019-02-07T12:23:39.999Z,25.20
2019-02-07T12:24:46.299Z,19.60
2019-02-07T12:25:52.959Z,24.00
2019-02-07T12:26:59.063Z,21.60
2019-02-07T12:28:02.278Z,22.40
2019-02-07T12:29:23.327Z,22.60
2019-02-07T12:30:43.373Z,24.80
2019-02-07T12:32:03.427Z,22.60
2019-02-07T12:33:12.444Z,25.20
2019-02-07T12:34:32.045Z,25.20
2019-02-07T12:35:38.279Z,22.60
2019-02-07T12:36:44.423Z,24.40
2019-02-07T12:37:50.165Z,24.80
2019-02-07T12:38:56.265Z,20.80
2019-02-07T12:40:11.752Z,21.40
2019-02-07T12:41:27.304Z,24.20
2019-02-07T12:42:30.777Z,18.00
2019-02-07T12:43:50.457Z,20.00
2019-02-07T12:45:10.283Z,22.00
2019-02-07T12:46:30.329Z,23.20
2019-02-07T12:47:33.634Z,18.60
2019-02-07T12:48:42.661Z,23.80
2019-02-07T12:49:48.900Z,18.20
2019-02-07T12:50:54.995Z,21.80
2019-02-07T12:52:15.516Z,22.60
2019-02-07T12:53:35.249Z,22.20
2019-02-07T12:54:41.521Z,17.80
2019-02-07T12:55:52.435Z,25.00
2019-02-07T12:57:09.599Z,23.00
2019-02-07T12:58:29.412Z,23.60
2019-02-07T12:59:35.778Z,20.80
2019-02-07T13:00:42.096Z,21.40
2019-02-07T13:02:02.482Z,21.00
2019-02-07T13:03:17.817Z,19.60
2019-02-07T13:04:33.122Z,18.80
2019-02-07T13:05:39.528Z,22.80
2019-02-07T13:07:00.799Z,24.20
2019-02-07T13:08:04.122Z,20.80
2019-02-07T13:09:19.140Z,20.20
2019-02-07T13:10:25.983Z,22.40
2019-02-07T13:11:40.889Z,22.80
2019-02-07T13:12:47.021Z,23.60
2019-02-07T13:13:59.516Z,22.00
2019-02-07T13:15:20.851Z,25.20
2019-02-07T13:16:30.259Z,20.20
2019-02-07T13:17:43.025Z,23.40
2019-02-07T13:18:53.657Z,22.20
2019-02-07T13:19:56.866Z,23.00
2019-02-07T13:21:09.469Z,22.00
2019-02-07T13:22:15.987Z,23.40
2019-02-07T13:23:34.753Z,20.00
2019-02-07T13:24:55.045Z,24.20
2019-02-07T13:26:01.463Z,24.00
2019-02-07T13:27:16.657Z,24.60
2019-02-07T13:28:22.934Z,20.20
2019-02-07T13:29:42.878Z,23.20
2019-02-07T13:30:58.132Z,21.60
2019-02-07T13:32:04.415Z,23.20
2019-02-07T13:33:13.558Z,21.00
2019-02-07T13:34:20.150Z,19.40
2019-02-07T13:35:41.618Z,20.00
2019-02-07T13:37:03.045Z,23.00
2019-02-07T13:38:21.739Z,19.20
2019-02-07T13:39:28.114Z,22.60
2019-02-07T13:40:48.584Z,23.80
2019-02-07T13:42:08.893Z,19.00
2019-02-07T13:43:12.140Z,25.40
2019-02-07T13:44:18.070Z,26.00
2019-02-07T13:45:37.952Z,25.40
2019-02-07T13:46:41.095Z,23.40
2019-02-07T13:47:44.330Z,22.40
2019-02-07T13:48:59.602Z,22.40
2019-02-07T13:50:11.542Z,22.80
2019-02-07T13:51:20.806Z,24.00
2019-02-07T13:52:42.071Z,21.80
2019-02-07T13:53:48.354Z,20.80
2019-02-07T13:54:51.771Z,24.80
2019-02-07T13:56:13.244Z,24.00
2019-02-07T13:57:32.848Z,21.00
2019-02-07T13:58:52.582Z,23.60
2019-02-07T14:00:04.916Z,19.20
2019-02-07T14:01:15.331Z,21.80
2019-02-07T14:02:21.965Z,20.80
2019-02-07T14:03:28.276Z,23.60
2019-02-07T14:04:43.515Z,21.20
2019-02-07T14:06:01.976Z,20.20
2019-02-07T14:07:11.436Z,21.60
2019-02-07T14:08:38.479Z,21.20
2019-02-07T14:09:36.432Z,19.20
2019-02-07T14:10:42.319Z,21.00
2019-02-07T14:11:54.619Z,19.20
2019-02-07T14:12:57.813Z,22.40
2019-02-07T14:14:18.752Z,22.40
2019-02-07T14:15:31.113Z,21.20
2019-02-07T14:16:34.330Z,21.80
2019-02-07T14:17:40.281Z,21.40
2019-02-07T14:18:46.467Z,20.20
2019-02-07T14:20:03.806Z,25.00
2019-02-07T14:21:20.700Z,23.40
2019-02-07T14:22:29.958Z,18.00
2019-02-07T14:23:33.265Z,21.80
2019-02-07T14:24:53.109Z,18.40
2019-02-07T14:25:56.251Z,18.00
2019-02-07T14:27:11.394Z,24.60
2019-02-07T14:28:29.593Z,20.40
2019-02-07T14:29:32.750Z,24.20
2019-02-07T14:30:51.013Z,22.60
2019-02-07T14:32:09.821Z,19.60
2019-02-07T14:33:21.963Z,22.80
2019-02-07T14:34:31.484Z,21.60
2019-02-07T14:35:37.731Z,21.60
2019-02-07T14:36:41.216Z,23.80
2019-02-07T14:37:47.125Z,18.60
2019-02-07T14:39:02.269Z,20.40
2019-02-07T14:40:22.684Z,20.80
2019-02-07T14:41:35.181Z,21.40
2019-02-07T14:42:38.276Z,20.80
2019-02-07T14:43:41.769Z,19.20
2019-02-07T14:45:02.149Z,19.80
2019-02-07T14:46:24.042Z,20.60